AirNav   TITAN Aviation Fuels
 
 545 users online  

KFZI Fostoria Metro Airport
Fostoria, Ohio, USA

GOING TO FOSTORIA?


FAA INFORMATION EFFECTIVE 01 DECEMBER 2022

Location

FAA Identifier: FZI
Lat/Long: 41-11-27.0000N 083-23-35.1000W
41-11.450000N 083-23.585000W
41.1908333,-83.3930833
(estimated)
Elevation: 751.6 ft. / 229.1 m (surveyed)
Variation: 05W (1985)
From city: 2 miles NE of FOSTORIA, OH
Time zone: UTC -5 (UTC -4 during Daylight Saving Time)
Zip code: 44830

Airport Operations

Airport use: Open to the public
Activation date: 08/1972
Control tower: no
ARTCC: CLEVELAND CENTER
FSS: CLEVELAND FLIGHT SERVICE STATION
NOTAMs facility: CLE (NOTAM-D service available)
Attendance: UNATNDD
Wind indicator: lighted
Segmented circle: no
Lights: ACTVT REIL RWY 09 & 27; PAPI RWY 09 & 27; MIRL RWY 09/27 - CTAF.
Beacon: white-green (lighted land airport)
Operates sunset to sunrise.

Airport Communications

CTAF/UNICOM: 122.7
WX AWOS-3: 124.625 (419-436-0053)
TOLEDO APPROACH: 126.1
TOLEDO DEPARTURE: 126.1
WX AWOS-3 at 16G (10 nm SE): 127.175 (419-443-1043)
WX AWOS-3 at 1G0 (16 nm NW): 120.725 (419-354-1415)
WX ASOS at FDY (16 nm SW): 132.85 (419-427-8524)
WX AWOS-3 at S24 (17 nm E): 119.575 (419-547-6932)

Nearby radio navigation aids

VOR radial/distance  VOR name  Freq  Var
FBCr051/21.7FLAG CITY VORTAC108.2002W
BUDr342/(37.6)BUCKEYE VOR109.8005W

 
NDB name  Hdg/Dist  Freq  Var  ID
TIFFIN311/9.926905WTII - .. ..
PORT CLINTON237/30.742307WPCW .--. -.-. .--

Airport Services

Fuel available: 100LL JET-A+
Parking: tiedowns
Airframe service: NONE
Powerplant service: NONE
Bottled oxygen: NONE
Bulk oxygen: NONE

Runway Information

Runway 9/27

Dimensions: 5005 x 100 ft. / 1526 x 30 m
Surface: asphalt, in fair condition
Weight bearing capacity: 
Single wheel: 30.0
Double wheel: 35.0
Double tandem: 52.0
Runway edge lights: medium intensity
RUNWAY 9  RUNWAY 27
Latitude: 41-11.449085N41-11.450857N
Longitude: 083-24.129653W083-23.038562W
Elevation: 751.4 ft.751.5 ft.
Traffic pattern: leftleft
Runway heading: 095 magnetic, 090 true275 magnetic, 270 true
Markings: nonprecision, in fair conditionnonprecision, in fair condition
Visual slope indicator: 4-light PAPI on left (3.00 degrees glide path)4-light PAPI on left (3.00 degrees glide path)
Runway end identifier lights: yesyes
Touchdown point: yes, no lightsyes, no lights
Obstructions: 61 ft. trees, 1633 ft. from runway, 436 ft. right of centerline, 23:1 slope to clear5 ft. crops, 201 ft. from runway, 210 ft. right of centerline
5 FT CROPS, 0-200 FT DIST, 210 FT L.

Airport Ownership and Management from official FAA records

Ownership: Publicly-owned
Owner: CITY OF FOSTORIA
213 S MAIN ST
FOSTORIA, OH 44830-2322
Phone 419-435-2561
Manager: DEB HELLMAN
4495 N COUNTY ROAD 25
FOSTORIA, OH 44830-9565
Phone 419-435-2561
FZI_APT_MGR@FOSTORIAOHIO.GOV.

Airport Operational Statistics

Aircraft based on the field: 11
Single engine airplanes: 9
Multi engine airplanes: 1
Jet airplanes: 1
    
Aircraft operations: avg 22/day *
57% transient general aviation
38% local general aviation
5% air taxi
* for 12-month period ending 04 October 2018

Additional Remarks

FOR CD CTC TOLEDO APCH AT 419-865-1495.

Instrument Procedures

NOTE: All procedures below are presented as PDF files. If you need a reader for these files, you should download the free Adobe Reader.

NOT FOR NAVIGATION. Please procure official charts for flight.
FAA instrument procedures published for use from 01 December 2022 at 0901Z to 29 December 2022 at 0900z.

 
IAPs - Instrument Approach Procedures
RNAV (GPS) RWY 09   download (245KB)
RNAV (GPS) RWY 27   download (217KB)
VOR-A   download (177KB)
NOTE: Special Alternate Minimums apply   download (143KB)
NOTE: Special Take-Off Minimums/Departure Procedures apply   download (459KB)

Other nearby airports with instrument procedures:

16G - Seneca County Airport (10 nm SE)
14G - Fremont Airport (13 nm NE)
1G0 - Wood County Airport (16 nm NW)
KFDY - Findlay Airport (16 nm SW)
S24 - Sandusky County Regional Airport (17 nm E)
56D - Wyandot County Airport (19 nm S)
 
Loc | Ops | Rwys | IFR | FBO | Links
Com | Nav | Svcs | Stats | Notes
Area around KFZI (Fostoria Metro Airport)
 
Road maps at: MapQuest Bing Google
 
Aerial photo
WARNING: Photo may not be current or correct
Aerial photo of KFZI (Fostoria Metro Airport)
Photo taken 01-Nov-2009

Do you have a better or more recent aerial photo of Fostoria Metro Airport that you would like to share? If so, please send us your photo.

 
Sectional chart

 
Airport distance calculator
Flying to Fostoria Metro Airport? Find the distance to fly.

From to KFZI

Sunrise and sunset
Times for 02-Dec-2022
 Local
(UTC-5)
 Zulu
(UTC)
Morning civil twilight07:1112:11
Sunrise07:4212:42
Sunset17:0422:04
Evening civil twilight17:3522:35

Current date and time
Zulu (UTC)  02-Dec-2022 07:28:01
Local (UTC-5)  02-Dec-2022 02:28:01
 
METAR
KFDY 
16nm SW 
020653Z AUTO 14007KT 10SM OVC100 M01/M06 A3031 RMK AO2 SLP268 T10061061
KTDZ 
23nm N 
020653Z AUTO 16008KT 10SM OVC100 00/M05 A3032 RMK AO2 SLP274 T00001050
KOWX 
28nm W 
020715Z AUTO 16005KT 10SM BKN100 00/M06 A3032 RMK AO1
KTOL 
30nm NW 
020652Z VRB05KT 10SM OVC100 00/M06 A3031 RMK AO2 SLP269 T00001061
KPCW 
31nm NE 
020715Z AUTO 18008KT 10SM OVC095 M00/M03 A3033 RMK AO2
TAF
KFDY 
16nm SW 
020542Z 0206/0306 19005KT P6SM SKC FM021400 19012G20KT P6SM BKN100 FM021700 19015G25KT P6SM BKN100 FM022300 19020G30KT P6SM OVC070 FM030100 21020G30KT P6SM VCSH OVC035 WS020/21060KT
NOTAMs
Click for the latest NOTAMs
NOTAMs are issued by the DoD/FAA and will open in a separate window not controlled by AirNav.

 

 
 

Would you like to see your business listed on this page?

 If your business provides an interesting product or service to pilots, flight crews, aircraft, or users of the Fostoria Metro Airport, you should consider listing it here.  To start the listing process, click on the button below
 
Add a business
 

Other Pages about Fostoria Metro Airport

Update a link
 
Copyright © AirNav, LLC. All rights reserved. Privacy Policy  Contact